Time;durP1;ratioP1;P1;durP2;ratioP2;P2;SDS_P1;SDS_P2;PMS_P1;PMS_P2;Temp;Humidity;BMP_temperature;BMP_pressure;BME280_temperature;BME280_humidity;BME280_pressure;Samples;Min_cycle;Max_cycle;Signal;HPM_P1;HPM_P2
2021/09/11 00:01:49;;;;;;;18.42;10.60;;;11.00;99.90;;;;;;6120346;23;20422;-73
2021/09/11 00:04:15;;;;;;;13.60;9.82;;;10.90;99.90;;;;;;6094822;23;20002;-73
2021/09/11 00:06:41;;;;;;;17.13;10.38;;;11.00;99.90;;;;;;6121498;23;20009;-74
2021/09/11 00:09:07;;;;;;;15.38;9.35;;;11.00;99.90;;;;;;6120161;23;20072;-73
2021/09/11 00:11:33;;;;;;;15.15;10.15;;;10.90;99.90;;;;;;6120381;23;20340;-74
2021/09/11 00:13:59;;;;;;;16.85;11.30;;;10.90;99.90;;;;;;6120689;23;20026;-73
2021/09/11 00:16:24;;;;;;;14.02;10.40;;;10.90;99.90;;;;;;6122405;23;20385;-74
2021/09/11 00:18:50;;;;;;;13.25;9.85;;;10.90;99.90;;;;;;6121248;23;20084;-74
2021/09/11 00:21:16;;;;;;;15.20;10.43;;;10.80;99.90;;;;;;6122079;23;20064;-75
2021/09/11 00:23:41;;;;;;;13.90;9.43;;;10.80;99.90;;;;;;6120082;23;20022;-73
2021/09/11 00:26:07;;;;;;;14.52;10.73;;;10.80;99.90;;;;;;6120524;23;20006;-75
2021/09/11 00:28:33;;;;;;;14.20;10.23;;;10.70;99.90;;;;;;6120750;23;20021;-74
2021/09/11 00:30:59;;;;;;;14.93;10.13;;;10.70;99.90;;;;;;6094382;23;20458;-72
2021/09/11 00:33:26;;;;;;;14.00;9.15;;;10.70;99.90;;;;;;6120810;23;20002;-76
2021/09/11 00:35:52;;;;;;;13.60;9.10;;;10.70;99.90;;;;;;6120066;23;20006;-74
2021/09/11 00:38:17;;;;;;;14.90;11.30;;;10.60;99.90;;;;;;6119678;23;20016;-75
2021/09/11 00:40:43;;;;;;;14.80;9.60;;;10.60;99.90;;;;;;6121993;23;20009;-75
2021/09/11 00:43:09;;;;;;;12.07;9.07;;;10.60;99.90;;;;;;6120299;23;20050;-75
2021/09/11 00:45:35;;;;;;;14.75;9.75;;;10.50;99.90;;;;;;6120698;23;20032;-75
2021/09/11 00:48:00;;;;;;;15.82;10.18;;;10.50;99.90;;;;;;6120316;23;20357;-75
2021/09/11 00:50:26;;;;;;;14.85;11.02;;;10.50;99.90;;;;;;6119804;23;20005;-73
2021/09/11 00:52:52;;;;;;;12.48;10.23;;;10.40;99.90;;;;;;6121503;23;19998;-75
2021/09/11 00:55:18;;;;;;;15.50;10.60;;;10.40;99.90;;;;;;6120342;23;20496;-75
2021/09/11 00:57:46;;;;;;;15.30;10.45;;;10.40;99.90;;;;;;6121166;23;20006;-75
2021/09/11 01:00:13;;;;;;;13.65;9.48;;;10.40;99.90;;;;;;6120562;23;20029;-75
2021/09/11 01:02:39;;;;;;;14.43;10.18;;;10.40;99.90;;;;;;6119767;23;20029;-75
2021/09/11 01:05:07;;;;;;;15.68;10.05;;;10.40;99.90;;;;;;6120764;23;20440;-75
2021/09/11 01:07:34;;;;;;;14.57;10.07;;;10.40;99.90;;;;;;6122743;23;20088;-75
2021/09/11 01:10:01;;;;;;;18.92;11.02;;;10.40;99.90;;;;;;6124015;23;20006;-76
2021/09/11 01:12:28;;;;;;;15.30;11.13;;;10.40;99.90;;;;;;6124383;23;20002;-76
2021/09/11 01:14:53;;;;;;;15.48;11.15;;;10.40;99.90;;;;;;6125134;23;20381;-75
2021/09/11 01:17:19;;;;;;;14.18;10.43;;;10.40;99.90;;;;;;6124788;23;20002;-76
2021/09/11 01:19:45;;;;;;;14.73;9.95;;;10.30;99.90;;;;;;6124638;23;19998;-75
2021/09/11 01:22:14;;;;;;;13.48;10.48;;;10.30;99.90;;;;;;6124382;23;20422;-75
2021/09/11 01:25:10;;;;;;;14.93;10.27;;;10.20;99.90;;;;;;6124551;23;20013;-76
2021/09/11 01:27:36;;;;;;;14.90;11.20;;;10.20;99.90;;;;;;6104790;23;20017;-76
2021/09/11 01:30:04;;;;;;;14.23;10.52;;;10.10;99.90;;;;;;6123456;23;20006;-75
2021/09/11 01:32:32;;;;;;;14.88;10.35;;;10.20;99.90;;;;;;6124295;23;20006;-75
2021/09/11 01:34:58;;;;;;;16.35;11.07;;;10.10;99.90;;;;;;6124285;23;20002;-75
2021/09/11 01:37:23;;;;;;;14.80;10.65;;;10.00;99.90;;;;;;6122678;23;20002;-75
2021/09/11 01:39:49;;;;;;;17.98;11.18;;;10.00;99.90;;;;;;6124032;23;20495;-76
2021/09/11 01:42:24;;;;;;;14.73;11.10;;;10.00;99.90;;;;;;6123674;23;20006;-75
2021/09/11 01:44:59;;;;;;;14.98;10.57;;;9.90;99.90;;;;;;6124905;23;20012;-76
2021/09/11 01:47:25;;;;;;;12.27;10.40;;;10.00;99.90;;;;;;6126223;23;20444;-75
2021/09/11 01:49:52;;;;;;;15.55;11.70;;;9.90;99.90;;;;;;6124844;23;20403;-75
2021/09/11 01:52:19;;;;;;;13.50;9.82;;;9.90;99.90;;;;;;6125587;23;20006;-75
2021/09/11 01:54:45;;;;;;;17.63;11.55;;;9.90;99.90;;;;;;6125528;23;20002;-75
2021/09/11 01:57:11;;;;;;;15.85;11.10;;;9.90;99.90;;;;;;6126203;23;20009;-75
2021/09/11 01:59:38;;;;;;;15.70;11.05;;;9.80;99.90;;;;;;6126246;23;20006;-75
2021/09/11 02:02:04;;;;;;;15.15;11.23;;;9.80;99.90;;;;;;6126709;23;20349;-75
2021/09/11 02:04:31;;;;;;;14.00;9.82;;;9.80;99.90;;;;;;6126230;23;20061;-75
2021/09/11 02:06:57;;;;;;;15.45;10.88;;;9.80;99.90;;;;;;6126366;23;20013;-75
2021/09/11 02:09:23;;;;;;;15.20;10.90;;;9.70;99.90;;;;;;6125669;23;20040;-75
2021/09/11 02:11:49;;;;;;;17.60;11.70;;;9.70;99.90;;;;;;6125598;23;20010;-75
2021/09/11 02:14:15;;;;;;;15.52;11.38;;;9.70;99.90;;;;;;6125863;23;20042;-75
2021/09/11 02:16:40;;;;;;;17.25;10.68;;;9.70;99.90;;;;;;6125836;23;20332;-75
2021/09/11 02:19:06;;;;;;;16.65;11.02;;;9.70;99.90;;;;;;6125679;23;20009;-75
2021/09/11 02:21:32;;;;;;;16.25;11.48;;;9.70;99.90;;;;;;6125852;23;20069;-75
2021/09/11 02:23:57;;;;;;;15.48;10.98;;;9.70;99.90;;;;;;6126006;23;20013;-75
2021/09/11 02:26:23;;;;;;;17.58;10.85;;;9.50;99.90;;;;;;6126111;23;20013;-75
2021/09/11 02:28:49;;;;;;;17.13;11.88;;;9.50;99.90;;;;;;6125637;23;20100;-75
2021/09/11 02:31:14;;;;;;;16.98;11.77;;;9.50;99.90;;;;;;6125761;23;20002;-75
2021/09/11 02:33:44;;;;;;;16.27;11.60;;;9.40;99.90;;;;;;6125447;23;20009;-75
2021/09/11 02:36:09;;;;;;;16.27;11.85;;;9.40;99.90;;;;;;6125773;23;20033;-75
2021/09/11 02:38:35;;;;;;;19.85;12.20;;;9.40;99.90;;;;;;6125027;23;20500;-74
2021/09/11 02:41:01;;;;;;;16.70;11.93;;;9.40;99.90;;;;;;6125898;23;19998;-75
2021/09/11 02:43:27;;;;;;;16.83;11.50;;;9.40;99.90;;;;;;6125636;23;20013;-75
2021/09/11 02:45:52;;;;;;;19.10;11.88;;;9.40;99.90;;;;;;6099772;23;20009;-75
2021/09/11 02:48:18;;;;;;;18.45;11.77;;;9.40;99.90;;;;;;6125406;23;20014;-74
2021/09/11 02:50:44;;;;;;;14.88;11.23;;;9.40;99.90;;;;;;6125091;23;20447;-75
2021/09/11 02:53:09;;;;;;;14.52;11.05;;;9.30;99.90;;;;;;6125740;23;20080;-75
2021/09/11 02:55:36;;;;;;;16.00;11.60;;;9.20;99.90;;;;;;6125506;23;20002;-75
2021/09/11 02:58:02;;;;;;;14.23;10.48;;;9.30;99.90;;;;;;6125447;23;20013;-75
2021/09/11 03:00:27;;;;;;;18.27;13.05;;;9.20;99.90;;;;;;6125452;23;20002;-75
2021/09/11 03:02:53;;;;;;;17.88;11.68;;;9.20;99.90;;;;;;6125247;23;20009;-75
2021/09/11 03:05:18;;;;;;;16.33;11.85;;;9.20;99.90;;;;;;6125303;23;20002;-76
2021/09/11 03:07:44;;;;;;;16.58;12.35;;;9.30;99.90;;;;;;6125509;23;20504;-75
2021/09/11 03:10:10;;;;;;;15.82;11.07;;;9.20;99.90;;;;;;6125547;23;20006;-74
2021/09/11 03:12:36;;;;;;;16.33;11.57;;;9.20;99.90;;;;;;6125525;23;20029;-75
2021/09/11 03:15:02;;;;;;;15.52;11.52;;;9.20;99.90;;;;;;6125045;23;20013;-75
2021/09/11 03:17:27;;;;;;;19.17;11.88;;;9.10;99.90;;;;;;6125865;23;20010;-75
2021/09/11 03:19:53;;;;;;;16.85;11.07;;;9.10;99.90;;;;;;6124881;23;20079;-75
2021/09/11 03:22:19;;;;;;;16.77;12.05;;;9.10;99.90;;;;;;6125065;23;20447;-75
2021/09/11 03:24:44;;;;;;;16.65;11.55;;;9.10;99.90;;;;;;6125206;23;20088;-75
2021/09/11 03:27:10;;;;;;;20.67;12.30;;;9.10;99.90;;;;;;6124779;23;20436;-75
2021/09/11 03:29:36;;;;;;;15.07;11.95;;;9.10;99.90;;;;;;6124942;23;20049;-75
2021/09/11 03:32:01;;;;;;;15.93;10.95;;;9.10;99.90;;;;;;6125229;23;20056;-75
2021/09/11 03:34:27;;;;;;;18.10;12.77;;;9.10;99.90;;;;;;6125037;23;20033;-74
2021/09/11 03:36:53;;;;;;;15.88;11.45;;;9.00;99.90;;;;;;6125331;23;20089;-75
2021/09/11 03:39:18;;;;;;;19.17;12.55;;;9.00;99.90;;;;;;6098956;23;20422;-75
2021/09/11 03:41:44;;;;;;;16.17;11.57;;;9.00;99.90;;;;;;6123824;23;20014;-75
2021/09/11 03:44:09;;;;;;;14.80;11.88;;;9.00;99.90;;;;;;6125339;23;20029;-75
2021/09/11 03:46:35;;;;;;;16.05;11.35;;;9.10;99.90;;;;;;6125167;23;20032;-75
2021/09/11 03:49:01;;;;;;;15.80;11.13;;;9.10;99.90;;;;;;6124987;23;20024;-75
2021/09/11 03:51:29;;;;;;;18.05;12.40;;;9.00;99.90;;;;;;6125227;23;20421;-75
2021/09/11 03:53:55;;;;;;;18.60;11.32;;;9.00;99.90;;;;;;6125398;23;20010;-74
2021/09/11 03:56:21;;;;;;;18.20;12.15;;;9.00;99.90;;;;;;6124361;23;20057;-75
2021/09/11 03:58:46;;;;;;;17.77;12.93;;;9.00;99.90;;;;;;6124673;23;20006;-75
2021/09/11 04:01:12;;;;;;;16.88;12.07;;;9.00;99.90;;;;;;6098390;23;20028;-75
2021/09/11 04:03:38;;;;;;;15.48;11.32;;;9.00;99.90;;;;;;6124477;23;20002;-75
2021/09/11 04:06:04;;;;;;;16.27;12.10;;;9.00;99.90;;;;;;6124106;23;20002;-75
2021/09/11 04:08:30;;;;;;;15.07;11.77;;;8.90;99.90;;;;;;6125095;23;20054;-75
2021/09/11 04:10:57;;;;;;;16.30;11.50;;;8.90;99.90;;;;;;6124432;23;20826;-75
2021/09/11 04:13:23;;;;;;;18.20;12.50;;;8.90;99.90;;;;;;6098129;23;20089;-75
2021/09/11 04:15:49;;;;;;;15.63;10.82;;;8.90;99.90;;;;;;6124970;23;20085;-75
2021/09/11 04:18:15;;;;;;;20.45;12.68;;;8.90;99.90;;;;;;6124036;23;20371;-75
2021/09/11 04:20:40;;;;;;;19.05;11.73;;;8.90;99.90;;;;;;6123184;23;20014;-75
2021/09/11 04:23:06;;;;;;;18.42;10.93;;;8.90;99.90;;;;;;6122613;23;20018;-75
2021/09/11 04:25:32;;;;;;;16.70;11.93;;;9.00;99.90;;;;;;6123635;23;20009;-75
2021/09/11 04:27:57;;;;;;;16.48;11.18;;;9.10;99.90;;;;;;6124669;23;20101;-74
2021/09/11 04:30:23;;;;;;;15.32;11.40;;;9.10;99.90;;;;;;6124507;23;20080;-74
2021/09/11 04:32:49;;;;;;;16.13;11.65;;;9.10;99.90;;;;;;6123779;23;20013;-74
2021/09/11 04:35:15;;;;;;;20.17;12.43;;;9.10;99.90;;;;;;6098350;23;20002;-74
2021/09/11 04:37:40;;;;;;;20.27;11.98;;;9.20;99.90;;;;;;6123886;23;20008;-75
2021/09/11 04:40:07;;;;;;;17.40;11.88;;;9.20;99.90;;;;;;6124467;23;20006;-75
2021/09/11 04:42:32;;;;;;;15.38;11.70;;;9.20;99.90;;;;;;6124198;23;20084;-75
2021/09/11 04:44:58;;;;;;;14.65;11.48;;;9.30;99.90;;;;;;6124709;23;20029;-74
2021/09/11 04:47:24;;;;;;;15.70;11.40;;;9.30;99.90;;;;;;6124195;23;20330;-74
2021/09/11 04:49:49;;;;;;;16.17;11.93;;;9.40;99.90;;;;;;6098113;23;20090;-75
2021/09/11 04:52:15;;;;;;;21.08;13.02;;;9.40;99.90;;;;;;6123792;23;20005;-75
2021/09/11 04:54:41;;;;;;;16.13;12.27;;;9.50;99.90;;;;;;6122763;23;20002;-74
2021/09/11 04:57:07;;;;;;;18.55;11.82;;;9.60;99.90;;;;;;6123225;23;20012;-75
2021/09/11 04:59:32;;;;;;;13.60;11.10;;;9.60;99.90;;;;;;6124447;23;20005;-74
2021/09/11 05:01:58;;;;;;;15.60;11.88;;;9.70;99.90;;;;;;6123883;23;20345;-74
2021/09/11 05:04:24;;;;;;;17.13;11.95;;;9.80;99.90;;;;;;6123803;23;20333;-74
2021/09/11 05:06:50;;;;;;;14.30;11.23;;;9.80;99.90;;;;;;6123399;23;20012;-75
2021/09/11 05:09:15;;;;;;;18.77;11.82;;;9.90;99.90;;;;;;6123216;23;20099;-73
2021/09/11 05:11:41;;;;;;;13.63;10.90;;;10.00;99.90;;;;;;6124150;23;20005;-74
2021/09/11 05:14:07;;;;;;;17.00;11.80;;;10.00;99.90;;;;;;6124252;23;20084;-73
2021/09/11 05:16:33;;;;;;;21.20;12.10;;;10.10;99.90;;;;;;6124122;23;20417;-74
2021/09/11 05:18:59;;;;;;;14.82;11.90;;;10.20;99.90;;;;;;6123130;23;20442;-73
2021/09/11 05:21:24;;;;;;;18.98;11.45;;;10.30;99.90;;;;;;6125630;23;20006;-74
2021/09/11 05:23:50;;;;;;;21.80;13.27;;;10.40;99.90;;;;;;6126440;23;20069;-74
2021/09/11 05:26:16;;;;;;;18.10;12.73;;;10.50;99.90;;;;;;6126351;23;20523;-73
2021/09/11 05:28:41;;;;;;;17.45;12.38;;;10.60;99.90;;;;;;6126444;23;20018;-74
2021/09/11 05:31:07;;;;;;;23.77;13.25;;;10.70;99.90;;;;;;6099175;23;20337;-74
2021/09/11 05:33:33;;;;;;;23.58;12.65;;;10.80;99.90;;;;;;6125574;23;20006;-74
2021/09/11 05:35:58;;;;;;;30.52;14.50;;;11.00;99.90;;;;;;6125319;23;20002;-74
2021/09/11 05:38:24;;;;;;;21.05;12.80;;;11.10;99.90;;;;;;6125892;23;20405;-73
2021/09/11 05:40:50;;;;;;;20.90;12.63;;;11.30;99.90;;;;;;6125581;23;20006;-74
2021/09/11 05:43:17;;;;;;;21.05;14.23;;;11.40;99.90;;;;;;6124939;23;20013;-73
2021/09/11 05:45:42;;;;;;;21.55;12.90;;;11.50;99.90;;;;;;6125431;23;20033;-73
2021/09/11 05:48:08;;;;;;;26.20;13.65;;;11.70;99.90;;;;;;6126452;23;20017;-74
2021/09/11 05:50:34;;;;;;;20.63;13.88;;;11.70;99.90;;;;;;6125632;23;20002;-74
2021/09/11 05:53:00;;;;;;;21.23;13.48;;;11.90;99.90;;;;;;6123632;23;20013;-74
2021/09/11 05:55:25;;;;;;;18.65;14.00;;;12.10;99.90;;;;;;6124314;23;20009;-74
2021/09/11 05:57:51;;;;;;;19.67;14.18;;;12.20;99.90;;;;;;6125572;23;20005;-74
2021/09/11 06:00:17;;;;;;;15.85;12.82;;;12.40;99.90;;;;;;6126441;23;20017;-73
2021/09/11 06:02:42;;;;;;;20.83;13.93;;;12.60;99.90;;;;;;6126514;23;20029;-74
2021/09/11 06:05:08;;;;;;;20.80;13.23;;;12.70;99.90;;;;;;6125827;23;20421;-73
2021/09/11 06:07:34;;;;;;;17.70;13.43;;;12.90;99.90;;;;;;6125174;23;20013;-74
2021/09/11 06:10:00;;;;;;;18.52;12.43;;;13.10;99.90;;;;;;6126417;23;20006;-74
2021/09/11 06:12:26;;;;;;;20.88;13.75;;;13.20;99.90;;;;;;6099367;23;20337;-74
2021/09/11 06:14:52;;;;;;;16.98;12.05;;;13.50;99.90;;;;;;6125733;23;20010;-73
2021/09/11 06:17:17;;;;;;;18.20;11.80;;;13.70;99.90;;;;;;6125593;23;20029;-73
2021/09/11 06:19:43;;;;;;;20.02;13.38;;;13.80;99.90;;;;;;6125751;23;20002;-73
2021/09/11 06:22:10;;;;;;;22.42;12.63;;;14.00;99.90;;;;;;6125471;23;20006;-74
2021/09/11 06:24:37;;;;;;;16.05;11.45;;;14.20;99.90;;;;;;6125835;23;20033;-74
2021/09/11 06:27:04;;;;;;;17.75;11.27;;;14.40;99.90;;;;;;6126281;23;20344;-74
2021/09/11 06:29:30;;;;;;;14.20;10.52;;;14.50;99.90;;;;;;6126205;23;20017;-74
2021/09/11 06:31:56;;;;;;;12.82;10.57;;;14.70;99.90;;;;;;6124985;23;20055;-74
2021/09/11 06:34:22;;;;;;;15.27;10.45;;;14.80;99.90;;;;;;6125831;23;20006;-74
2021/09/11 06:36:47;;;;;;;14.50;10.48;;;14.90;99.90;;;;;;6125782;23;20002;-73
2021/09/11 06:39:13;;;;;;;11.23;9.48;;;15.10;99.90;;;;;;6125991;23;20082;-74
2021/09/11 06:41:39;;;;;;;13.30;9.63;;;15.20;99.90;;;;;;6100112;23;20029;-74
2021/09/11 06:44:05;;;;;;;15.23;9.70;;;15.30;99.90;;;;;;6125551;23;20012;-73
2021/09/11 06:46:31;;;;;;;32.25;10.63;;;15.40;99.90;;;;;;6125166;23;20001;-74
2021/09/11 06:48:57;;;;;;;15.30;9.85;;;15.50;99.90;;;;;;6125370;23;20349;-74
2021/09/11 06:51:22;;;;;;;15.35;9.05;;;15.60;99.90;;;;;;6124721;23;20338;-74
2021/09/11 06:53:49;;;;;;;12.95;9.20;;;15.70;99.90;;;;;;6126006;23;20002;-74
2021/09/11 06:56:15;;;;;;;13.00;8.98;;;15.90;99.90;;;;;;6125321;23;20002;-75
2021/09/11 06:58:41;;;;;;;28.33;11.10;;;16.00;99.90;;;;;;6123718;23;20006;-74
2021/09/11 07:01:07;;;;;;;13.18;8.82;;;16.20;99.90;;;;;;6125120;23;20006;-74
2021/09/11 07:03:33;;;;;;;14.65;8.68;;;16.30;99.90;;;;;;6125588;23;20009;-74
2021/09/11 07:06:03;;;;;;;16.40;9.95;;;16.40;99.90;;;;;;6125709;23;20006;-74
2021/09/11 07:08:32;;;;;;;14.73;9.60;;;16.50;99.90;;;;;;6125720;23;20020;-75
2021/09/11 07:10:58;;;;;;;20.50;9.50;;;16.60;99.90;;;;;;6125585;23;20484;-74
2021/09/11 07:13:24;;;;;;;13.68;9.95;;;16.70;99.90;;;;;;6123092;23;20338;-74
2021/09/11 07:15:50;;;;;;;12.93;8.38;;;16.80;99.90;;;;;;6122697;23;20027;-74
2021/09/11 07:18:16;;;;;;;15.82;8.80;;;17.00;99.90;;;;;;6124638;23;20137;-74
2021/09/11 07:20:41;;;;;;;14.18;8.82;;;17.10;99.90;;;;;;6125348;23;20013;-74
2021/09/11 07:23:07;;;;;;;12.95;8.57;;;17.20;99.90;;;;;;6124296;23;20014;-74
2021/09/11 07:25:33;;;;;;;18.90;8.50;;;17.40;99.90;;;;;;6123135;23;20077;-75
2021/09/11 07:27:59;;;;;;;17.83;8.90;;;17.40;99.90;;;;;;6125116;23;20010;-75
2021/09/11 07:30:25;;;;;;;12.68;8.30;;;17.50;99.90;;;;;;6125011;23;20009;-75
2021/09/11 07:32:51;;;;;;;14.43;7.93;;;17.60;99.90;;;;;;6124030;23;20034;-74
2021/09/11 07:35:17;;;;;;;17.05;8.98;;;17.70;99.90;;;;;;6124525;23;20083;-75
2021/09/11 07:37:43;;;;;;;9.75;7.78;;;17.90;99.90;;;;;;6125318;23;20453;-74
2021/09/11 07:40:09;;;;;;;11.38;8.25;;;18.00;99.90;;;;;;6124673;23;20006;-75
2021/09/11 07:42:35;;;;;;;12.20;7.63;;;18.10;99.90;;;;;;6124856;23;20002;-75
2021/09/11 07:45:01;;;;;;;12.35;7.53;;;18.20;99.90;;;;;;6125086;23;20009;-74
2021/09/11 07:47:26;;;;;;;14.10;8.60;;;18.30;99.90;;;;;;6125623;23;20014;-74
2021/09/11 07:49:52;;;;;;;16.15;7.88;;;18.40;99.90;;;;;;6125014;23;20447;-75
2021/09/11 07:52:17;;;;;;;10.50;8.02;;;18.50;99.90;;;;;;6125392;23;20433;-75
2021/09/11 07:54:43;;;;;;;14.23;7.75;;;18.70;99.90;;;;;;6125485;23;20076;-75
2021/09/11 07:57:09;;;;;;;16.88;7.53;;;18.80;99.90;;;;;;6125051;23;20061;-75
2021/09/11 07:59:35;;;;;;;19.33;7.93;;;18.90;99.90;;;;;;6124777;23;19998;-75
2021/09/11 08:02:01;;;;;;;11.43;7.68;;;19.00;99.90;;;;;;6122641;23;20013;-75
2021/09/11 08:04:27;;;;;;;13.65;7.35;;;19.00;99.90;;;;;;6125065;23;20002;-75
2021/09/11 08:06:53;;;;;;;15.15;6.85;;;19.10;99.90;;;;;;6124847;23;20009;-75
2021/09/11 08:09:19;;;;;;;13.63;6.32;;;19.20;99.90;;;;;;6125439;23;20014;-73
2021/09/11 08:11:45;;;;;;;11.90;6.82;;;19.30;99.90;;;;;;6124889;23;20009;-73
2021/09/11 08:14:11;;;;;;;20.42;6.55;;;19.40;99.90;;;;;;6125887;23;20005;-73
2021/09/11 08:16:36;;;;;;;12.02;7.10;;;19.50;99.90;;;;;;6122947;23;20010;-74
2021/09/11 08:19:02;;;;;;;9.65;6.30;;;19.70;99.90;;;;;;6124581;23;20002;-74
2021/09/11 08:21:28;;;;;;;12.27;6.00;;;19.80;99.90;;;;;;6124375;23;20005;-74
2021/09/11 08:23:54;;;;;;;12.48;6.38;;;20.00;99.90;;;;;;6097521;23;20341;-74
2021/09/11 08:26:20;;;;;;;9.40;6.00;;;20.00;99.90;;;;;;6124283;23;20009;-75
2021/09/11 08:28:45;;;;;;;9.35;5.68;;;20.10;99.90;;;;;;6124080;23;20382;-75
2021/09/11 08:31:13;;;;;;;9.80;6.25;;;20.20;99.90;;;;;;6120782;23;20421;-75
2021/09/11 08:33:40;;;;;;;10.63;5.40;;;20.30;99.90;;;;;;6123567;23;20009;-73
2021/09/11 08:36:05;;;;;;;12.70;6.90;;;20.40;99.90;;;;;;6123776;23;20008;-73
2021/09/11 08:38:34;;;;;;;9.48;5.75;;;20.40;99.90;;;;;;6124170;23;20085;-74
2021/09/11 08:41:03;;;;;;;11.30;5.97;;;20.50;99.90;;;;;;6123229;23;20009;-74
2021/09/11 08:43:29;;;;;;;8.65;5.13;;;20.50;99.90;;;;;;6121330;23;20009;-74
2021/09/11 08:45:55;;;;;;;13.50;6.22;;;20.50;99.90;;;;;;6123270;23;20013;-73
2021/09/11 08:48:21;;;;;;;10.55;5.45;;;20.60;99.90;;;;;;6124075;23;20101;-74
2021/09/11 08:50:46;;;;;;;8.88;5.78;;;20.70;99.90;;;;;;6124414;23;20109;-73
2021/09/11 08:53:12;;;;;;;12.60;5.90;;;20.70;99.90;;;;;;6124571;23;20006;-73
2021/09/11 08:55:38;;;;;;;13.23;6.28;;;20.80;99.90;;;;;;6124238;23;20002;-74
2021/09/11 08:58:06;;;;;;;8.57;5.80;;;20.90;99.90;;;;;;6124516;23;20060;-74
2021/09/11 09:00:50;;;;;;;21.33;5.80;;;21.00;99.90;;;;;;6124834;23;20006;-74
2021/09/11 09:03:34;;;;;;;10.95;5.70;;;21.10;99.90;;;;;;6124237;23;20005;-73
2021/09/11 09:06:19;;;;;;;11.07;5.30;;;21.10;99.90;;;;;;6124368;23;20374;-75
2021/09/11 09:08:54;;;;;;;13.23;5.00;;;21.20;99.90;;;;;;6125408;23;20014;-74
2021/09/11 09:11:27;;;;;;;9.90;5.20;;;21.30;99.90;;;;;;6125202;23;20006;-75
2021/09/11 09:14:06;;;;;;;13.93;5.60;;;21.50;99.90;;;;;;6124950;23;20013;-75
2021/09/11 09:16:37;;;;;;;10.07;5.82;;;21.50;99.90;;;;;;6124532;23;20006;-76
2021/09/11 09:19:12;;;;;;;11.20;5.40;;;21.60;99.90;;;;;;6125210;23;20033;-75
2021/09/11 09:21:39;;;;;;;9.43;5.53;;;21.70;99.90;;;;;;6124876;23;20026;-75
2021/09/11 09:24:07;;;;;;;8.77;5.05;;;21.70;99.90;;;;;;6124643;23;20469;-74
2021/09/11 09:26:52;;;;;;;13.88;5.15;;;21.90;99.90;;;;;;6125062;23;20080;-74
2021/09/11 09:29:18;;;;;;;9.73;5.70;;;22.00;99.90;;;;;;6124351;23;20041;-75
2021/09/11 09:31:46;;;;;;;11.27;5.75;;;22.10;99.90;;;;;;6124808;23;20025;-75
2021/09/11 09:34:43;;;;;;;10.98;5.35;;;22.20;99.90;;;;;;6124852;23;20006;-75
2021/09/11 09:37:13;;;;;;;14.80;5.65;;;22.30;99.90;;;;;;6100500;23;20449;-74
2021/09/11 09:39:43;;;;;;;8.85;5.40;;;22.40;99.90;;;;;;6124501;23;20092;-74
2021/09/11 09:42:11;;;;;;;10.05;5.97;;;22.40;99.90;;;;;;6123523;23;20006;-75
2021/09/11 09:44:41;;;;;;;11.85;5.40;;;22.40;99.90;;;;;;6097631;23;20540;-74
2021/09/11 09:47:24;;;;;;;14.68;6.28;;;22.40;99.90;;;;;;6123556;23;20341;-75
2021/09/11 09:50:07;;;;;;;8.68;5.20;;;22.40;99.90;;;;;;6120135;23;20040;-75
2021/09/11 09:52:34;;;;;;;10.82;5.15;;;22.50;99.90;;;;;;6122986;23;20032;-75
2021/09/11 09:55:00;;;;;;;8.10;4.63;;;22.50;99.90;;;;;;6123162;23;20013;-75
2021/09/11 09:57:27;;;;;;;11.57;4.90;;;22.60;99.90;;;;;;6097344;23;20010;-75
2021/09/11 09:59:58;;;;;;;9.65;5.38;;;22.60;99.90;;;;;;6122306;23;20013;-74
2021/09/11 10:02:27;;;;;;;12.30;4.95;;;22.70;99.90;;;;;;6123261;23;20002;-73
2021/09/11 10:04:55;;;;;;;59.70;8.20;;;22.70;99.90;;;;;;6097034;23;20017;-74
2021/09/11 10:07:22;;;;;;;14.90;4.97;;;22.70;99.90;;;;;;6125582;23;20006;-75
2021/09/11 10:09:50;;;;;;;12.95;5.70;;;22.80;99.90;;;;;;6126157;23;20002;-75
2021/09/11 10:12:36;;;;;;;23.23;5.10;;;22.80;99.90;;;;;;6125731;23;19998;-75
2021/09/11 10:15:28;;;;;;;8.00;5.03;;;23.00;99.80;;;;;;6125110;23;20006;-76
2021/09/11 10:17:58;;;;;;;10.15;4.82;;;23.00;99.70;;;;;;6125630;23;20520;-75
2021/09/11 10:20:25;;;;;;;7.57;4.90;;;23.10;99.90;;;;;;6099400;23;20496;-76
2021/09/11 10:23:08;;;;;;;10.70;5.28;;;23.10;98.40;;;;;;6099779;23;20018;-75
2021/09/11 10:25:46;;;;;;;10.07;4.85;;;23.10;98.80;;;;;;6124528;23;20006;-76
2021/09/11 10:28:26;;;;;;;11.88;5.53;;;23.20;99.20;;;;;;6121692;23;20014;-74
2021/09/11 10:31:01;;;;;;;7.72;5.05;;;23.30;99.10;;;;;;6123662;23;20307;-75
2021/09/11 10:33:48;;;;;;;8.85;4.85;;;23.30;98.60;;;;;;6121124;23;20457;-75
2021/09/11 10:36:43;;;;;;;11.27;4.75;;;23.30;97.80;;;;;;6106760;23;20013;-75
2021/09/11 10:39:10;;;;;;;8.48;4.95;;;23.40;98.40;;;;;;6114008;23;20804;-75
2021/09/11 10:41:36;;;;;;;7.30;4.32;;;23.40;97.80;;;;;;6089579;23;20119;-74
2021/09/11 10:44:05;;;;;;;9.50;4.43;;;23.50;97.60;;;;;;6122751;23;20015;-74
2021/09/11 10:46:47;;;;;;;6.97;4.53;;;23.50;96.80;;;;;;6117093;23;20033;-74
2021/09/11 10:49:26;;;;;;;13.13;5.78;;;23.50;96.70;;;;;;6121761;23;20016;-75
2021/09/11 10:52:10;;;;;;;6.90;4.67;;;23.50;97.10;;;;;;6090406;23;20013;-75
2021/09/11 10:54:44;;;;;;;12.65;4.28;;;23.60;97.10;;;;;;6122055;23;20013;-76
2021/09/11 10:57:16;;;;;;;9.55;4.50;;;23.70;96.30;;;;;;6119294;23;20531;-74
2021/09/11 10:59:46;;;;;;;8.15;3.60;;;23.70;94.10;;;;;;6094053;23;20018;-75
2021/09/11 11:02:30;;;;;;;8.88;4.28;;;23.70;93.60;;;;;;6121376;23;20429;-74
2021/09/11 11:05:07;;;;;;;8.23;4.40;;;23.80;94.70;;;;;;6114609;23;20408;-75
2021/09/11 11:07:40;;;;;;;9.82;4.00;;;23.90;93.50;;;;;;6123555;23;20736;-74
2021/09/11 11:10:10;;;;;;;8.70;4.65;;;23.90;93.50;;;;;;6116869;23;19998;-75
2021/09/11 11:12:40;;;;;;;8.30;4.13;;;23.90;92.90;;;;;;6123940;23;20523;-75
2021/09/11 11:15:09;;;;;;;7.82;4.18;;;23.90;93.30;;;;;;6116176;23;20012;-74
2021/09/11 11:17:37;;;;;;;6.93;3.77;;;23.90;93.00;;;;;;6123858;23;20065;-75
2021/09/11 11:20:05;;;;;;;10.55;4.43;;;24.00;92.80;;;;;;6116842;23;20010;-75
2021/09/11 11:22:38;;;;;;;24.75;5.95;;;24.00;93.80;;;;;;6122526;23;20025;-75
2021/09/11 11:25:13;;;;;;;11.70;4.60;;;24.00;94.10;;;;;;6112923;23;20013;-75
2021/09/11 11:27:39;;;;;;;9.02;5.00;;;24.00;93.80;;;;;;6119893;23;20010;-75
2021/09/11 11:30:07;;;;;;;7.32;4.18;;;24.00;93.90;;;;;;6115054;23;20426;-75
2021/09/11 11:32:35;;;;;;;8.52;4.90;;;24.00;93.00;;;;;;6120770;23;20010;-75
2021/09/11 11:35:02;;;;;;;9.57;4.78;;;24.10;93.70;;;;;;6113873;23;20402;-75
2021/09/11 11:37:30;;;;;;;14.45;5.07;;;24.10;93.00;;;;;;6121234;23;20009;-75
2021/09/11 11:40:02;;;;;;;9.07;4.90;;;24.10;93.20;;;;;;6114559;23;20014;-75
2021/09/11 11:42:33;;;;;;;9.13;4.80;;;24.20;92.90;;;;;;6120441;23;20006;-75
2021/09/11 11:44:59;;;;;;;8.82;4.53;;;24.20;92.80;;;;;;6119141;23;20327;-75
2021/09/11 11:47:52;;;;;;;7.40;4.72;;;24.10;93.60;;;;;;6119053;23;20390;-75
2021/09/11 11:50:19;;;;;;;13.52;4.60;;;24.20;93.90;;;;;;6123931;23;20010;-75
2021/09/11 11:52:51;;;;;;;8.13;4.60;;;24.20;93.70;;;;;;6114743;23;20874;-75
2021/09/11 11:55:21;;;;;;;6.75;5.13;;;24.20;93.20;;;;;;6122592;23;20437;-75
2021/09/11 11:57:46;;;;;;;;;;;24.20;93.70;;;;;;6116584;23;20089;-75
2021/09/11 12:00:12;;;;;;;11.77;5.03;;;24.30;94.40;;;;;;6123775;23;19955;-75
2021/09/11 12:02:40;;;;;;;8.82;5.10;;;24.40;94.10;;;;;;6116232;23;20017;-75
2021/09/11 12:05:18;;;;;;;9.35;4.93;;;24.40;94.00;;;;;;6123323;23;20479;-75
2021/09/11 12:07:55;;;;;;;7.88;4.22;;;24.40;92.50;;;;;;6114690;23;20008;-75
2021/09/11 12:10:22;;;;;;;6.70;4.38;;;24.40;92.20;;;;;;6123880;23;20036;-75
2021/09/11 12:12:50;;;;;;;10.55;4.63;;;24.40;92.80;;;;;;6115416;23;20080;-75
2021/09/11 12:15:19;;;;;;;9.20;4.45;;;24.50;92.30;;;;;;6122226;23;20006;-75
2021/09/11 12:18:09;;;;;;;7.90;4.43;;;24.40;92.50;;;;;;6115756;23;20006;-75
2021/09/11 12:20:50;;;;;;;7.05;4.80;;;24.50;92.90;;;;;;6119593;23;20551;-76
2021/09/11 12:23:17;;;;;;;10.82;4.47;;;24.60;92.50;;;;;;6121259;23;20053;-75
2021/09/11 12:26:07;;;;;;;8.80;4.22;;;24.50;92.60;;;;;;6115997;23;20449;-75
2021/09/11 12:28:42;;;;;;;8.93;4.43;;;24.60;91.10;;;;;;6121310;23;20107;-75
2021/09/11 12:31:10;;;;;;;6.18;3.65;;;24.50;91.20;;;;;;6115423;23;20433;-75
2021/09/11 12:33:54;;;;;;;6.28;3.92;;;24.60;91.00;;;;;;6122495;23;20017;-75
2021/09/11 12:36:28;;;;;;;9.77;4.25;;;24.60;90.80;;;;;;6115097;23;20010;-75
2021/09/11 12:38:55;;;;;;;10.38;4.50;;;24.50;91.10;;;;;;6123073;23;20009;-75
2021/09/11 12:41:21;;;;;;;13.13;4.22;;;24.60;91.50;;;;;;6115881;23;20009;-75